Terminal Aerodrome Forecast
Issued by NWS Wilmington, OH

Current Version | Previous Version | Graphics & Text | Print | Product List | Glossary On
Versions: 1 2 3 4 5 6 7 8 9 10 11 12 13 14 15 16 17 18 19 20 21 22
000
FTUS41 KILN 202346
TAFDAY
TAF
KDAY 202346Z 2100/2124 20007KT P6SM OVC022
     FM210300 20007KT P6SM OVC012
     FM210500 20007KT 4SM BR VCSH OVC006
     FM211700 20012KT 5SM BR VCSH OVC006
     FM212300 19008KT 5SM BR OVC008=

USA.gov is the U.S. government's official web portal to all federal, state and local government web resources and services.